sensor_id;sensor_type;location;lat;lon;timestamp;P1;durP1;ratioP1;P2;durP2;ratioP2
64873;SDS011;51367;45.204;38.576;2023-12-22T00:02:12;1.88;;;1.73;;
64873;SDS011;51367;45.204;38.576;2023-12-22T00:04:38;1.67;;;1.58;;
64873;SDS011;51367;45.204;38.576;2023-12-22T00:07:04;2.97;;;2.70;;
64873;SDS011;51367;45.204;38.576;2023-12-22T00:09:30;1.75;;;1.65;;
64873;SDS011;51367;45.204;38.576;2023-12-22T00:11:56;1.73;;;1.63;;
64873;SDS011;51367;45.204;38.576;2023-12-22T00:14:22;1.55;;;1.45;;
64873;SDS011;51367;45.204;38.576;2023-12-22T00:16:47;1.63;;;1.33;;
64873;SDS011;51367;45.204;38.576;2023-12-22T00:19:13;5.15;;;2.03;;
64873;SDS011;51367;45.204;38.576;2023-12-22T00:21:39;1.55;;;1.45;;
64873;SDS011;51367;45.204;38.576;2023-12-22T00:24:05;2.45;;;2.05;;
64873;SDS011;51367;45.204;38.576;2023-12-22T00:26:32;4.43;;;2.20;;
64873;SDS011;51367;45.204;38.576;2023-12-22T00:28:58;2.58;;;2.38;;
64873;SDS011;51367;45.204;38.576;2023-12-22T00:31:24;3.42;;;3.13;;
64873;SDS011;51367;45.204;38.576;2023-12-22T00:33:50;1.63;;;1.52;;
64873;SDS011;51367;45.204;38.576;2023-12-22T00:36:16;2.58;;;1.55;;
64873;SDS011;51367;45.204;38.576;2023-12-22T00:38:43;1.83;;;1.73;;
64873;SDS011;51367;45.204;38.576;2023-12-22T00:41:10;1.67;;;1.58;;
64873;SDS011;51367;45.204;38.576;2023-12-22T00:43:36;3.60;;;2.05;;
64873;SDS011;51367;45.204;38.576;2023-12-22T00:46:02;2.65;;;2.45;;
64873;SDS011;51367;45.204;38.576;2023-12-22T00:48:28;1.92;;;1.80;;
64873;SDS011;51367;45.204;38.576;2023-12-22T00:50:53;2.65;;;1.73;;
64873;SDS011;51367;45.204;38.576;2023-12-22T00:53:19;2.30;;;2.10;;
64873;SDS011;51367;45.204;38.576;2023-12-22T00:55:45;2.97;;;2.00;;
64873;SDS011;51367;45.204;38.576;2023-12-22T00:58:11;1.75;;;1.50;;
64873;SDS011;51367;45.204;38.576;2023-12-22T01:00:37;2.30;;;1.45;;
64873;SDS011;51367;45.204;38.576;2023-12-22T01:03:03;2.00;;;1.52;;
64873;SDS011;51367;45.204;38.576;2023-12-22T01:05:29;1.67;;;1.58;;
64873;SDS011;51367;45.204;38.576;2023-12-22T01:07:56;2.22;;;1.40;;
64873;SDS011;51367;45.204;38.576;2023-12-22T01:10:21;2.83;;;1.88;;
64873;SDS011;51367;45.204;38.576;2023-12-22T01:12:47;1.08;;;1.02;;
64873;SDS011;51367;45.204;38.576;2023-12-22T01:15:13;2.38;;;2.08;;
64873;SDS011;51367;45.204;38.576;2023-12-22T01:17:39;4.25;;;1.40;;
64873;SDS011;51367;45.204;38.576;2023-12-22T01:20:05;1.95;;;1.67;;
64873;SDS011;51367;45.204;38.576;2023-12-22T01:22:32;1.33;;;1.23;;
64873;SDS011;51367;45.204;38.576;2023-12-22T01:24:59;2.20;;;2.00;;
64873;SDS011;51367;45.204;38.576;2023-12-22T01:27:26;1.60;;;1.50;;
64873;SDS011;51367;45.204;38.576;2023-12-22T01:29:52;1.52;;;1.42;;
64873;SDS011;51367;45.204;38.576;2023-12-22T01:32:18;6.97;;;1.50;;
64873;SDS011;51367;45.204;38.576;2023-12-22T01:34:44;1.70;;;1.35;;
64873;SDS011;51367;45.204;38.576;2023-12-22T01:37:11;1.75;;;1.65;;
64873;SDS011;51367;45.204;38.576;2023-12-22T01:39:37;1.38;;;1.27;;
64873;SDS011;51367;45.204;38.576;2023-12-22T01:42:03;1.60;;;1.42;;
64873;SDS011;51367;45.204;38.576;2023-12-22T01:44:29;1.70;;;1.60;;
64873;SDS011;51367;45.204;38.576;2023-12-22T01:46:55;1.50;;;1.40;;
64873;SDS011;51367;45.204;38.576;2023-12-22T01:49:21;1.73;;;1.33;;
64873;SDS011;51367;45.204;38.576;2023-12-22T01:51:48;1.50;;;1.30;;
64873;SDS011;51367;45.204;38.576;2023-12-22T01:54:14;2.03;;;1.70;;
64873;SDS011;51367;45.204;38.576;2023-12-22T01:56:41;2.10;;;1.80;;
64873;SDS011;51367;45.204;38.576;2023-12-22T01:59:08;1.95;;;1.75;;
64873;SDS011;51367;45.204;38.576;2023-12-22T02:01:34;2.05;;;1.50;;
64873;SDS011;51367;45.204;38.576;2023-12-22T02:04:01;1.55;;;1.45;;
64873;SDS011;51367;45.204;38.576;2023-12-22T02:06:27;1.27;;;1.13;;
64873;SDS011;51367;45.204;38.576;2023-12-22T02:08:56;1.80;;;1.70;;
64873;SDS011;51367;45.204;38.576;2023-12-22T02:11:23;1.67;;;1.52;;
64873;SDS011;51367;45.204;38.576;2023-12-22T02:13:49;1.55;;;1.45;;
64873;SDS011;51367;45.204;38.576;2023-12-22T02:16:19;1.80;;;1.70;;
64873;SDS011;51367;45.204;38.576;2023-12-22T02:18:52;2.92;;;1.90;;
64873;SDS011;51367;45.204;38.576;2023-12-22T02:21:21;1.23;;;1.20;;
64873;SDS011;51367;45.204;38.576;2023-12-22T02:23:48;1.50;;;1.40;;
64873;SDS011;51367;45.204;38.576;2023-12-22T02:26:33;2.08;;;1.50;;
64873;SDS011;51367;45.204;38.576;2023-12-22T02:29:06;4.10;;;1.58;;
64873;SDS011;51367;45.204;38.576;2023-12-22T02:31:39;3.97;;;2.00;;
64873;SDS011;51367;45.204;38.576;2023-12-22T02:34:12;1.60;;;1.42;;
64873;SDS011;51367;45.204;38.576;2023-12-22T02:36:43;1.48;;;1.40;;
64873;SDS011;51367;45.204;38.576;2023-12-22T02:39:11;2.78;;;1.65;;
64873;SDS011;51367;45.204;38.576;2023-12-22T02:41:37;1.83;;;1.73;;
64873;SDS011;51367;45.204;38.576;2023-12-22T02:44:04;1.30;;;1.20;;
64873;SDS011;51367;45.204;38.576;2023-12-22T02:46:31;2.25;;;2.00;;
64873;SDS011;51367;45.204;38.576;2023-12-22T02:48:57;1.95;;;1.85;;
64873;SDS011;51367;45.204;38.576;2023-12-22T02:51:23;1.52;;;1.42;;
64873;SDS011;51367;45.204;38.576;2023-12-22T02:53:48;1.55;;;1.45;;
64873;SDS011;51367;45.204;38.576;2023-12-22T02:56:14;1.67;;;1.58;;
64873;SDS011;51367;45.204;38.576;2023-12-22T02:58:40;1.40;;;1.30;;
64873;SDS011;51367;45.204;38.576;2023-12-22T03:01:06;2.40;;;1.92;;
64873;SDS011;51367;45.204;38.576;2023-12-22T03:03:32;1.40;;;1.30;;
64873;SDS011;51367;45.204;38.576;2023-12-22T03:05:58;1.80;;;1.60;;
64873;SDS011;51367;45.204;38.576;2023-12-22T03:08:24;1.65;;;1.55;;
64873;SDS011;51367;45.204;38.576;2023-12-22T03:10:50;2.30;;;2.08;;
64873;SDS011;51367;45.204;38.576;2023-12-22T03:13:16;1.92;;;1.77;;
64873;SDS011;51367;45.204;38.576;2023-12-22T03:15:42;3.30;;;2.05;;
64873;SDS011;51367;45.204;38.576;2023-12-22T03:18:08;1.00;;;1.00;;
64873;SDS011;51367;45.204;38.576;2023-12-22T03:20:34;1.38;;;1.27;;
64873;SDS011;51367;45.204;38.576;2023-12-22T03:23:00;1.52;;;1.42;;
64873;SDS011;51367;45.204;38.576;2023-12-22T03:25:26;2.33;;;2.00;;
64873;SDS011;51367;45.204;38.576;2023-12-22T03:27:51;1.85;;;1.42;;
64873;SDS011;51367;45.204;38.576;2023-12-22T03:30:17;3.13;;;1.73;;
64873;SDS011;51367;45.204;38.576;2023-12-22T03:32:43;1.40;;;1.30;;
64873;SDS011;51367;45.204;38.576;2023-12-22T03:35:09;1.70;;;1.60;;
64873;SDS011;51367;45.204;38.576;2023-12-22T03:37:35;1.33;;;1.23;;
64873;SDS011;51367;45.204;38.576;2023-12-22T03:40:01;2.25;;;2.10;;
64873;SDS011;51367;45.204;38.576;2023-12-22T03:42:27;9.85;;;1.80;;
64873;SDS011;51367;45.204;38.576;2023-12-22T03:44:53;2.70;;;1.73;;
64873;SDS011;51367;45.204;38.576;2023-12-22T03:47:19;2.15;;;2.00;;
64873;SDS011;51367;45.204;38.576;2023-12-22T03:49:45;1.85;;;1.70;;
64873;SDS011;51367;45.204;38.576;2023-12-22T03:52:11;2.30;;;2.10;;
64873;SDS011;51367;45.204;38.576;2023-12-22T03:54:37;1.90;;;1.80;;
64873;SDS011;51367;45.204;38.576;2023-12-22T03:57:03;3.38;;;1.70;;
64873;SDS011;51367;45.204;38.576;2023-12-22T03:59:29;2.17;;;1.48;;
64873;SDS011;51367;45.204;38.576;2023-12-22T04:01:55;1.50;;;1.40;;
64873;SDS011;51367;45.204;38.576;2023-12-22T04:04:22;7.65;;;2.47;;
64873;SDS011;51367;45.204;38.576;2023-12-22T04:06:49;2.78;;;2.45;;
64873;SDS011;51367;45.204;38.576;2023-12-22T04:09:15;2.30;;;1.70;;
64873;SDS011;51367;45.204;38.576;2023-12-22T04:11:41;1.63;;;1.52;;
64873;SDS011;51367;45.204;38.576;2023-12-22T04:14:07;1.60;;;1.30;;
64873;SDS011;51367;45.204;38.576;2023-12-22T04:16:34;2.00;;;1.90;;
64873;SDS011;51367;45.204;38.576;2023-12-22T04:19:03;2.60;;;2.03;;
64873;SDS011;51367;45.204;38.576;2023-12-22T04:21:29;1.95;;;1.42;;
64873;SDS011;51367;45.204;38.576;2023-12-22T04:23:54;2.45;;;1.75;;
64873;SDS011;51367;45.204;38.576;2023-12-22T04:26:20;1.60;;;1.50;;
64873;SDS011;51367;45.204;38.576;2023-12-22T04:28:46;1.67;;;1.58;;
64873;SDS011;51367;45.204;38.576;2023-12-22T04:31:12;1.48;;;1.30;;
64873;SDS011;51367;45.204;38.576;2023-12-22T04:33:38;9.88;;;2.90;;
64873;SDS011;51367;45.204;38.576;2023-12-22T04:36:04;4.78;;;4.07;;
64873;SDS011;51367;45.204;38.576;2023-12-22T04:38:30;2.10;;;1.90;;
64873;SDS011;51367;45.204;38.576;2023-12-22T04:40:56;1.98;;;1.83;;
64873;SDS011;51367;45.204;38.576;2023-12-22T04:43:22;1.80;;;1.70;;
64873;SDS011;51367;45.204;38.576;2023-12-22T04:45:48;2.08;;;1.88;;
64873;SDS011;51367;45.204;38.576;2023-12-22T04:48:14;1.90;;;1.80;;
64873;SDS011;51367;45.204;38.576;2023-12-22T04:50:40;2.00;;;1.90;;
64873;SDS011;51367;45.204;38.576;2023-12-22T04:53:06;1.73;;;1.65;;
64873;SDS011;51367;45.204;38.576;2023-12-22T04:55:32;2.25;;;1.50;;
64873;SDS011;51367;45.204;38.576;2023-12-22T04:57:58;4.93;;;2.28;;
64873;SDS011;51367;45.204;38.576;2023-12-22T05:00:24;2.75;;;2.55;;
64873;SDS011;51367;45.204;38.576;2023-12-22T05:02:50;5.25;;;2.22;;
64873;SDS011;51367;45.204;38.576;2023-12-22T05:05:16;1.20;;;1.15;;
64873;SDS011;51367;45.204;38.576;2023-12-22T05:07:42;1.70;;;1.60;;
64873;SDS011;51367;45.204;38.576;2023-12-22T05:10:08;1.50;;;1.40;;
64873;SDS011;51367;45.204;38.576;2023-12-22T05:12:34;1.98;;;1.80;;
64873;SDS011;51367;45.204;38.576;2023-12-22T05:15:00;2.53;;;1.70;;
64873;SDS011;51367;45.204;38.576;2023-12-22T05:17:26;1.58;;;1.48;;
64873;SDS011;51367;45.204;38.576;2023-12-22T05:19:52;4.85;;;2.13;;
64873;SDS011;51367;45.204;38.576;2023-12-22T05:22:18;4.38;;;2.00;;
64873;SDS011;51367;45.204;38.576;2023-12-22T05:24:44;2.20;;;1.75;;
64873;SDS011;51367;45.204;38.576;2023-12-22T05:27:10;1.85;;;1.75;;
64873;SDS011;51367;45.204;38.576;2023-12-22T05:29:35;2.40;;;2.20;;
64873;SDS011;51367;45.204;38.576;2023-12-22T05:32:01;2.58;;;2.38;;
64873;SDS011;51367;45.204;38.576;2023-12-22T05:34:27;3.20;;;2.88;;
64873;SDS011;51367;45.204;38.576;2023-12-22T05:36:53;5.28;;;4.78;;
64873;SDS011;51367;45.204;38.576;2023-12-22T05:39:19;7.75;;;4.88;;
64873;SDS011;51367;45.204;38.576;2023-12-22T05:41:45;6.22;;;5.60;;
64873;SDS011;51367;45.204;38.576;2023-12-22T05:44:11;4.60;;;4.00;;
64873;SDS011;51367;45.204;38.576;2023-12-22T05:46:38;2.72;;;2.22;;
64873;SDS011;51367;45.204;38.576;2023-12-22T05:49:04;3.97;;;2.60;;
64873;SDS011;51367;45.204;38.576;2023-12-22T05:51:35;3.75;;;3.13;;
64873;SDS011;51367;45.204;38.576;2023-12-22T05:54:03;4.00;;;3.05;;
64873;SDS011;51367;45.204;38.576;2023-12-22T05:56:30;3.97;;;3.33;;
64873;SDS011;51367;45.204;38.576;2023-12-22T05:58:56;5.55;;;2.58;;
64873;SDS011;51367;45.204;38.576;2023-12-22T06:01:22;4.05;;;3.65;;
64873;SDS011;51367;45.204;38.576;2023-12-22T06:03:48;2.45;;;2.25;;
64873;SDS011;51367;45.204;38.576;2023-12-22T06:06:14;5.40;;;4.00;;
64873;SDS011;51367;45.204;38.576;2023-12-22T06:08:40;4.30;;;3.90;;
64873;SDS011;51367;45.204;38.576;2023-12-22T06:11:06;7.00;;;4.03;;
64873;SDS011;51367;45.204;38.576;2023-12-22T06:13:32;2.97;;;2.78;;
64873;SDS011;51367;45.204;38.576;2023-12-22T06:15:58;4.45;;;3.45;;
64873;SDS011;51367;45.204;38.576;2023-12-22T06:18:24;3.65;;;3.30;;
64873;SDS011;51367;45.204;38.576;2023-12-22T06:20:50;6.43;;;4.18;;
64873;SDS011;51367;45.204;38.576;2023-12-22T06:23:16;5.30;;;3.17;;
64873;SDS011;51367;45.204;38.576;2023-12-22T06:25:42;2.90;;;2.70;;
64873;SDS011;51367;45.204;38.576;2023-12-22T06:28:08;5.03;;;3.10;;
64873;SDS011;51367;45.204;38.576;2023-12-22T06:30:34;4.93;;;3.17;;
64873;SDS011;51367;45.204;38.576;2023-12-22T06:33:00;5.05;;;3.13;;
64873;SDS011;51367;45.204;38.576;2023-12-22T06:35:26;4.28;;;3.53;;
64873;SDS011;51367;45.204;38.576;2023-12-22T06:37:53;3.63;;;3.33;;
64873;SDS011;51367;45.204;38.576;2023-12-22T06:40:20;3.67;;;3.33;;
64873;SDS011;51367;45.204;38.576;2023-12-22T06:42:46;5.15;;;4.65;;
64873;SDS011;51367;45.204;38.576;2023-12-22T06:45:12;7.45;;;3.20;;
64873;SDS011;51367;45.204;38.576;2023-12-22T06:47:38;2.78;;;2.58;;
64873;SDS011;51367;45.204;38.576;2023-12-22T06:50:04;3.92;;;3.10;;
64873;SDS011;51367;45.204;38.576;2023-12-22T06:52:31;3.38;;;2.88;;
64873;SDS011;51367;45.204;38.576;2023-12-22T06:54:56;7.47;;;2.65;;
64873;SDS011;51367;45.204;38.576;2023-12-22T06:57:22;3.00;;;2.58;;
64873;SDS011;51367;45.204;38.576;2023-12-22T06:59:48;2.90;;;2.70;;
64873;SDS011;51367;45.204;38.576;2023-12-22T07:02:15;4.82;;;3.53;;
64873;SDS011;51367;45.204;38.576;2023-12-22T07:05:02;3.63;;;3.05;;
64873;SDS011;51367;45.204;38.576;2023-12-22T07:07:35;4.15;;;3.67;;
64873;SDS011;51367;45.204;38.576;2023-12-22T07:10:02;4.47;;;3.67;;
64873;SDS011;51367;45.204;38.576;2023-12-22T07:12:28;5.13;;;4.10;;
64873;SDS011;51367;45.204;38.576;2023-12-22T07:14:54;9.07;;;5.00;;
64873;SDS011;51367;45.204;38.576;2023-12-22T07:17:20;6.90;;;5.32;;
64873;SDS011;51367;45.204;38.576;2023-12-22T07:19:46;6.82;;;5.32;;
64873;SDS011;51367;45.204;38.576;2023-12-22T07:22:12;5.90;;;5.30;;
64873;SDS011;51367;45.204;38.576;2023-12-22T07:24:40;7.70;;;5.07;;
64873;SDS011;51367;45.204;38.576;2023-12-22T07:27:06;9.85;;;6.07;;
64873;SDS011;51367;45.204;38.576;2023-12-22T07:29:32;6.88;;;4.75;;
64873;SDS011;51367;45.204;38.576;2023-12-22T07:31:58;6.47;;;4.53;;
64873;SDS011;51367;45.204;38.576;2023-12-22T07:34:24;8.95;;;4.50;;
64873;SDS011;51367;45.204;38.576;2023-12-22T07:36:55;4.88;;;4.40;;
64873;SDS011;51367;45.204;38.576;2023-12-22T07:39:21;9.00;;;4.97;;
64873;SDS011;51367;45.204;38.576;2023-12-22T07:41:47;6.97;;;4.65;;
64873;SDS011;51367;45.204;38.576;2023-12-22T07:44:13;5.72;;;4.53;;
64873;SDS011;51367;45.204;38.576;2023-12-22T07:46:39;5.55;;;5.03;;
64873;SDS011;51367;45.204;38.576;2023-12-22T07:49:06;5.20;;;4.43;;
64873;SDS011;51367;45.204;38.576;2023-12-22T07:51:32;7.10;;;3.53;;
64873;SDS011;51367;45.204;38.576;2023-12-22T07:53:58;7.65;;;5.50;;
64873;SDS011;51367;45.204;38.576;2023-12-22T07:56:24;4.85;;;3.22;;
64873;SDS011;51367;45.204;38.576;2023-12-22T07:58:50;4.45;;;4.05;;
64873;SDS011;51367;45.204;38.576;2023-12-22T08:01:16;7.57;;;4.93;;
64873;SDS011;51367;45.204;38.576;2023-12-22T08:03:42;4.35;;;3.75;;
64873;SDS011;51367;45.204;38.576;2023-12-22T08:06:08;8.05;;;3.95;;
64873;SDS011;51367;45.204;38.576;2023-12-22T08:08:34;4.70;;;3.95;;
64873;SDS011;51367;45.204;38.576;2023-12-22T08:11:00;4.90;;;3.78;;
64873;SDS011;51367;45.204;38.576;2023-12-22T08:13:26;3.20;;;2.83;;
64873;SDS011;51367;45.204;38.576;2023-12-22T08:15:52;3.65;;;3.28;;
64873;SDS011;51367;45.204;38.576;2023-12-22T08:18:18;4.00;;;3.47;;
64873;SDS011;51367;45.204;38.576;2023-12-22T08:20:44;4.15;;;3.75;;
64873;SDS011;51367;45.204;38.576;2023-12-22T08:23:10;3.85;;;3.40;;
64873;SDS011;51367;45.204;38.576;2023-12-22T08:25:37;3.05;;;2.75;;
64873;SDS011;51367;45.204;38.576;2023-12-22T08:28:05;4.95;;;3.60;;
64873;SDS011;51367;45.204;38.576;2023-12-22T08:30:31;5.03;;;3.25;;
64873;SDS011;51367;45.204;38.576;2023-12-22T08:32:57;5.07;;;4.20;;
64873;SDS011;51367;45.204;38.576;2023-12-22T08:35:23;3.42;;;3.13;;
64873;SDS011;51367;45.204;38.576;2023-12-22T08:37:49;3.03;;;2.63;;
64873;SDS011;51367;45.204;38.576;2023-12-22T08:40:15;4.70;;;2.97;;
64873;SDS011;51367;45.204;38.576;2023-12-22T08:42:41;4.80;;;4.03;;
64873;SDS011;51367;45.204;38.576;2023-12-22T08:45:07;4.13;;;3.78;;
64873;SDS011;51367;45.204;38.576;2023-12-22T08:47:33;6.88;;;6.28;;
64873;SDS011;51367;45.204;38.576;2023-12-22T08:49:59;3.20;;;2.92;;
64873;SDS011;51367;45.204;38.576;2023-12-22T08:52:29;3.53;;;3.08;;
64873;SDS011;51367;45.204;38.576;2023-12-22T08:54:55;6.38;;;3.50;;
64873;SDS011;51367;45.204;38.576;2023-12-22T08:57:21;2.63;;;2.42;;
64873;SDS011;51367;45.204;38.576;2023-12-22T08:59:47;4.57;;;3.55;;
64873;SDS011;51367;45.204;38.576;2023-12-22T09:02:13;2.33;;;2.13;;
64873;SDS011;51367;45.204;38.576;2023-12-22T09:04:39;3.45;;;2.95;;
64873;SDS011;51367;45.204;38.576;2023-12-22T09:07:05;2.30;;;2.13;;
64873;SDS011;51367;45.204;38.576;2023-12-22T09:09:31;2.78;;;2.58;;
64873;SDS011;51367;45.204;38.576;2023-12-22T09:11:57;2.97;;;2.40;;
64873;SDS011;51367;45.204;38.576;2023-12-22T09:14:23;4.13;;;2.67;;
64873;SDS011;51367;45.204;38.576;2023-12-22T09:16:49;1.65;;;1.55;;
64873;SDS011;51367;45.204;38.576;2023-12-22T09:19:15;8.98;;;2.38;;
64873;SDS011;51367;45.204;38.576;2023-12-22T09:21:41;1.80;;;1.70;;
64873;SDS011;51367;45.204;38.576;2023-12-22T09:24:09;2.17;;;1.98;;
64873;SDS011;51367;45.204;38.576;2023-12-22T09:26:37;2.28;;;1.90;;
64873;SDS011;51367;45.204;38.576;2023-12-22T09:29:03;2.03;;;1.80;;
64873;SDS011;51367;45.204;38.576;2023-12-22T09:31:30;2.97;;;2.42;;
64873;SDS011;51367;45.204;38.576;2023-12-22T09:33:58;3.08;;;1.83;;
64873;SDS011;51367;45.204;38.576;2023-12-22T09:36:23;2.45;;;2.10;;
64873;SDS011;51367;45.204;38.576;2023-12-22T09:38:49;2.80;;;2.60;;
64873;SDS011;51367;45.204;38.576;2023-12-22T09:41:15;3.15;;;2.33;;
64873;SDS011;51367;45.204;38.576;2023-12-22T09:43:41;4.15;;;3.75;;
64873;SDS011;51367;45.204;38.576;2023-12-22T09:46:09;2.40;;;2.20;;
64873;SDS011;51367;45.204;38.576;2023-12-22T09:48:37;4.35;;;2.78;;
64873;SDS011;51367;45.204;38.576;2023-12-22T09:51:05;2.20;;;1.95;;
64873;SDS011;51367;45.204;38.576;2023-12-22T09:53:32;4.43;;;2.50;;
64873;SDS011;51367;45.204;38.576;2023-12-22T09:55:59;7.20;;;3.63;;
64873;SDS011;51367;45.204;38.576;2023-12-22T09:58:26;3.13;;;2.83;;
64873;SDS011;51367;45.204;38.576;2023-12-22T10:00:52;4.22;;;2.33;;
64873;SDS011;51367;45.204;38.576;2023-12-22T10:03:20;2.80;;;2.40;;
64873;SDS011;51367;45.204;38.576;2023-12-22T10:05:49;3.05;;;2.85;;
64873;SDS011;51367;45.204;38.576;2023-12-22T10:08:15;4.03;;;2.90;;
64873;SDS011;51367;45.204;38.576;2023-12-22T10:10:45;3.42;;;3.13;;
64873;SDS011;51367;45.204;38.576;2023-12-22T10:13:12;5.60;;;2.90;;
64873;SDS011;51367;45.204;38.576;2023-12-22T10:15:39;5.25;;;2.30;;
64873;SDS011;51367;45.204;38.576;2023-12-22T10:18:09;5.40;;;3.30;;
64873;SDS011;51367;45.204;38.576;2023-12-22T10:20:35;5.15;;;3.47;;
64873;SDS011;51367;45.204;38.576;2023-12-22T10:23:01;9.60;;;4.00;;
64873;SDS011;51367;45.204;38.576;2023-12-22T10:25:28;3.67;;;3.10;;
64873;SDS011;51367;45.204;38.576;2023-12-22T10:27:58;6.00;;;3.42;;
64873;SDS011;51367;45.204;38.576;2023-12-22T10:30:24;6.15;;;4.30;;
64873;SDS011;51367;45.204;38.576;2023-12-22T10:32:51;8.15;;;3.80;;
64873;SDS011;51367;45.204;38.576;2023-12-22T10:35:20;10.05;;;4.75;;
64873;SDS011;51367;45.204;38.576;2023-12-22T10:37:46;6.13;;;3.67;;
64873;SDS011;51367;45.204;38.576;2023-12-22T10:40:19;9.48;;;3.50;;
64873;SDS011;51367;45.204;38.576;2023-12-22T10:42:45;5.70;;;3.85;;
64873;SDS011;51367;45.204;38.576;2023-12-22T10:45:11;5.80;;;4.93;;
64873;SDS011;51367;45.204;38.576;2023-12-22T10:47:40;6.70;;;4.20;;
64873;SDS011;51367;45.204;38.576;2023-12-22T10:50:06;5.35;;;4.30;;
64873;SDS011;51367;45.204;38.576;2023-12-22T10:52:33;14.18;;;5.82;;
64873;SDS011;51367;45.204;38.576;2023-12-22T10:54:59;15.60;;;9.65;;
64873;SDS011;51367;45.204;38.576;2023-12-22T10:57:26;6.50;;;4.55;;
64873;SDS011;51367;45.204;38.576;2023-12-22T10:59:56;6.40;;;4.30;;
64873;SDS011;51367;45.204;38.576;2023-12-22T11:02:26;7.13;;;4.75;;
64873;SDS011;51367;45.204;38.576;2023-12-22T11:07:35;7.95;;;5.47;;
64873;SDS011;51367;45.204;38.576;2023-12-22T11:10:03;7.03;;;3.72;;
64873;SDS011;51367;45.204;38.576;2023-12-22T11:12:37;4.70;;;4.00;;
64873;SDS011;51367;45.204;38.576;2023-12-22T11:15:04;4.35;;;3.95;;
64873;SDS011;51367;45.204;38.576;2023-12-22T11:17:34;6.43;;;4.95;;
64873;SDS011;51367;45.204;38.576;2023-12-22T11:20:05;7.47;;;4.20;;
64873;SDS011;51367;45.204;38.576;2023-12-22T11:22:34;4.60;;;4.20;;
64873;SDS011;51367;45.204;38.576;2023-12-22T11:25:02;7.53;;;5.07;;
64873;SDS011;51367;45.204;38.576;2023-12-22T11:27:28;5.85;;;4.93;;
64873;SDS011;51367;45.204;38.576;2023-12-22T11:29:55;9.68;;;5.70;;
64873;SDS011;51367;45.204;38.576;2023-12-22T11:32:21;5.90;;;4.88;;
64873;SDS011;51367;45.204;38.576;2023-12-22T11:34:48;6.25;;;4.63;;
64873;SDS011;51367;45.204;38.576;2023-12-22T11:37:15;4.32;;;4.03;;
64873;SDS011;51367;45.204;38.576;2023-12-22T11:39:42;8.07;;;4.78;;
64873;SDS011;51367;45.204;38.576;2023-12-22T11:42:09;10.32;;;5.07;;
64873;SDS011;51367;45.204;38.576;2023-12-22T11:44:39;9.27;;;5.75;;
64873;SDS011;51367;45.204;38.576;2023-12-22T11:47:06;6.25;;;4.57;;
64873;SDS011;51367;45.204;38.576;2023-12-22T11:49:36;5.55;;;4.90;;
64873;SDS011;51367;45.204;38.576;2023-12-22T11:52:12;6.28;;;5.20;;
64873;SDS011;51367;45.204;38.576;2023-12-22T11:59:54;7.60;;;4.13;;
64873;SDS011;51367;45.204;38.576;2023-12-22T12:02:21;4.70;;;3.92;;
64873;SDS011;51367;45.204;38.576;2023-12-22T12:04:47;7.28;;;4.70;;
64873;SDS011;51367;45.204;38.576;2023-12-22T12:13:08;7.32;;;5.47;;
64873;SDS011;51367;45.204;38.576;2023-12-22T12:15:41;11.73;;;4.87;;
64873;SDS011;51367;45.204;38.576;2023-12-22T12:18:07;5.28;;;4.78;;
64873;SDS011;51367;45.204;38.576;2023-12-22T12:20:34;5.18;;;4.68;;
64873;SDS011;51367;45.204;38.576;2023-12-22T12:23:01;7.28;;;5.00;;
64873;SDS011;51367;45.204;38.576;2023-12-22T12:25:32;6.05;;;4.20;;
64873;SDS011;51367;45.204;38.576;2023-12-22T12:28:02;4.78;;;4.32;;
64873;SDS011;51367;45.204;38.576;2023-12-22T12:30:29;6.00;;;4.78;;
64873;SDS011;51367;45.204;38.576;2023-12-22T12:32:58;6.22;;;5.63;;
64873;SDS011;51367;45.204;38.576;2023-12-22T12:35:28;5.85;;;5.03;;
64873;SDS011;51367;45.204;38.576;2023-12-22T12:37:54;11.13;;;8.00;;
64873;SDS011;51367;45.204;38.576;2023-12-22T12:40:20;8.60;;;5.28;;
64873;SDS011;51367;45.204;38.576;2023-12-22T12:42:50;5.43;;;4.93;;
64873;SDS011;51367;45.204;38.576;2023-12-22T12:45:21;10.73;;;6.72;;
64873;SDS011;51367;45.204;38.576;2023-12-22T12:50:22;14.80;;;6.07;;
64873;SDS011;51367;45.204;38.576;2023-12-22T12:52:51;10.95;;;6.45;;
64873;SDS011;51367;45.204;38.576;2023-12-22T12:55:21;11.63;;;7.00;;
64873;SDS011;51367;45.204;38.576;2023-12-22T12:57:55;6.40;;;4.70;;
64873;SDS011;51367;45.204;38.576;2023-12-22T13:02:56;4.80;;;4.40;;
64873;SDS011;51367;45.204;38.576;2023-12-22T13:05:25;7.13;;;5.95;;
64873;SDS011;51367;45.204;38.576;2023-12-22T13:07:51;8.57;;;6.13;;
64873;SDS011;51367;45.204;38.576;2023-12-22T13:10:21;7.00;;;6.30;;
64873;SDS011;51367;45.204;38.576;2023-12-22T13:12:51;8.93;;;6.05;;
64873;SDS011;51367;45.204;38.576;2023-12-22T13:15:22;8.85;;;7.18;;
64873;SDS011;51367;45.204;38.576;2023-12-22T13:17:48;7.88;;;6.78;;
64873;SDS011;51367;45.204;38.576;2023-12-22T13:20:14;7.50;;;6.25;;
64873;SDS011;51367;45.204;38.576;2023-12-22T13:22:41;7.78;;;4.93;;
64873;SDS011;51367;45.204;38.576;2023-12-22T13:25:07;6.70;;;5.75;;
64873;SDS011;51367;45.204;38.576;2023-12-22T13:30:15;13.60;;;6.35;;
64873;SDS011;51367;45.204;38.576;2023-12-22T13:33:00;5.38;;;4.85;;
64873;SDS011;51367;45.204;38.576;2023-12-22T13:35:27;15.02;;;6.47;;
64873;SDS011;51367;45.204;38.576;2023-12-22T13:37:53;5.85;;;4.63;;
64873;SDS011;51367;45.204;38.576;2023-12-22T13:40:20;7.78;;;5.15;;
64873;SDS011;51367;45.204;38.576;2023-12-22T13:42:56;5.95;;;5.45;;
64873;SDS011;51367;45.204;38.576;2023-12-22T13:45:27;5.50;;;4.72;;
64873;SDS011;51367;45.204;38.576;2023-12-22T13:47:53;8.18;;;5.25;;
64873;SDS011;51367;45.204;38.576;2023-12-22T13:50:19;5.40;;;4.90;;
64873;SDS011;51367;45.204;38.576;2023-12-22T13:52:48;5.38;;;4.75;;
64873;SDS011;51367;45.204;38.576;2023-12-22T13:55:20;7.88;;;5.88;;
64873;SDS011;51367;45.204;38.576;2023-12-22T13:57:58;8.97;;;4.90;;
64873;SDS011;51367;45.204;38.576;2023-12-22T14:00:29;7.78;;;6.00;;
64873;SDS011;51367;45.204;38.576;2023-12-22T14:02:56;7.50;;;5.72;;
64873;SDS011;51367;45.204;38.576;2023-12-22T14:05:22;7.03;;;5.88;;
64873;SDS011;51367;45.204;38.576;2023-12-22T14:07:48;5.80;;;5.20;;
64873;SDS011;51367;45.204;38.576;2023-12-22T14:10:15;5.97;;;5.35;;
64873;SDS011;51367;45.204;38.576;2023-12-22T14:12:41;5.47;;;4.70;;
64873;SDS011;51367;45.204;38.576;2023-12-22T14:15:09;5.93;;;5.43;;
64873;SDS011;51367;45.204;38.576;2023-12-22T14:17:36;4.95;;;4.40;;
64873;SDS011;51367;45.204;38.576;2023-12-22T14:20:03;6.00;;;5.35;;
64873;SDS011;51367;45.204;38.576;2023-12-22T14:22:38;6.80;;;5.20;;
64873;SDS011;51367;45.204;38.576;2023-12-22T14:25:04;6.25;;;5.43;;
64873;SDS011;51367;45.204;38.576;2023-12-22T14:27:30;6.35;;;5.53;;
64873;SDS011;51367;45.204;38.576;2023-12-22T14:29:56;5.97;;;5.15;;
64873;SDS011;51367;45.204;38.576;2023-12-22T14:32:22;18.52;;;5.40;;
64873;SDS011;51367;45.204;38.576;2023-12-22T14:34:48;16.35;;;5.78;;
64873;SDS011;51367;45.204;38.576;2023-12-22T14:37:15;6.30;;;5.65;;
64873;SDS011;51367;45.204;38.576;2023-12-22T14:39:43;9.80;;;4.68;;
64873;SDS011;51367;45.204;38.576;2023-12-22T14:42:11;6.78;;;5.45;;
64873;SDS011;51367;45.204;38.576;2023-12-22T14:44:37;5.55;;;4.93;;
64873;SDS011;51367;45.204;38.576;2023-12-22T14:47:04;6.38;;;4.95;;
64873;SDS011;51367;45.204;38.576;2023-12-22T14:49:30;6.43;;;5.07;;
64873;SDS011;51367;45.204;38.576;2023-12-22T14:51:56;8.63;;;5.88;;
64873;SDS011;51367;45.204;38.576;2023-12-22T14:54:24;5.25;;;4.75;;